createdAt,value
2022-10-19T00:01:19.652Z,3.13
2022-10-19T00:06:36.514Z,3.22
2022-10-19T00:09:05.865Z,3.60
2022-10-19T00:11:34.642Z,3.25
2022-10-19T00:14:02.736Z,3.38
2022-10-19T00:16:33.467Z,3.33
2022-10-19T00:19:05.875Z,3.70
2022-10-19T00:21:33.859Z,3.42
2022-10-19T00:24:01.418Z,3.28
2022-10-19T00:26:29.068Z,3.30
2022-10-19T00:28:57.467Z,2.97
2022-10-19T00:31:25.786Z,2.60
2022-10-19T00:33:55.419Z,2.80
2022-10-19T00:36:34.733Z,2.80
2022-10-19T00:39:03.854Z,2.70
2022-10-19T00:41:33.638Z,3.30
2022-10-19T00:44:26.953Z,2.22
2022-10-19T00:46:59.094Z,2.83
2022-10-19T00:49:30.261Z,2.50
2022-10-19T00:52:02.734Z,2.42
2022-10-19T00:54:32.665Z,2.38
2022-10-19T00:57:00.566Z,2.60
2022-10-19T00:59:31.842Z,2.60
2022-10-19T01:02:01.550Z,2.38
2022-10-19T01:04:30.673Z,2.55
2022-10-19T01:06:59.708Z,2.00
2022-10-19T01:09:27.331Z,2.47
2022-10-19T01:12:06.536Z,2.15
2022-10-19T01:14:52.333Z,1.90
2022-10-19T01:17:54.285Z,2.10
2022-10-19T01:20:27.244Z,2.00
2022-10-19T01:23:00.443Z,2.13
2022-10-19T01:25:45.207Z,2.28
2022-10-19T01:28:35.101Z,2.40
2022-10-19T01:31:11.080Z,2.13
2022-10-19T01:36:27.367Z,1.50
2022-10-19T01:39:24.240Z,1.52
2022-10-19T01:47:27.693Z,1.90
2022-10-19T01:50:00.715Z,2.35
2022-10-19T01:52:29.277Z,1.50
2022-10-19T01:54:59.780Z,1.73
2022-10-19T01:57:34.274Z,1.50
2022-10-19T02:00:07.536Z,1.50
2022-10-19T02:02:46.310Z,1.30
2022-10-19T02:05:15.597Z,1.50
2022-10-19T02:07:47.758Z,1.00
2022-10-19T02:12:49.107Z,1.17
2022-10-19T02:15:21.159Z,0.90
2022-10-19T02:17:53.687Z,0.98
2022-10-19T02:20:21.773Z,0.80
2022-10-19T02:22:49.486Z,0.80
2022-10-19T02:25:17.389Z,0.80
2022-10-19T02:27:45.238Z,0.93
2022-10-19T02:30:16.307Z,0.50
2022-10-19T02:32:44.455Z,0.80
2022-10-19T02:35:14.601Z,0.75
2022-10-19T02:37:42.901Z,1.02
2022-10-19T02:40:11.457Z,0.60
2022-10-19T02:42:41.869Z,1.00
2022-10-19T02:45:16.768Z,0.77
2022-10-19T02:47:52.257Z,0.50
2022-10-19T02:50:20.943Z,1.00
2022-10-19T02:52:48.345Z,0.68
2022-10-19T02:55:16.160Z,0.40
2022-10-19T02:57:43.739Z,0.73
2022-10-19T03:00:11.984Z,0.77
2022-10-19T03:02:39.515Z,0.90
2022-10-19T03:05:07.299Z,0.70
2022-10-19T03:07:35.186Z,0.80
2022-10-19T03:10:02.882Z,0.80
2022-10-19T03:12:30.424Z,0.45
2022-10-19T03:14:57.922Z,0.57
2022-10-19T03:17:25.479Z,0.57
2022-10-19T03:19:52.944Z,0.50
2022-10-19T03:22:20.496Z,0.70
2022-10-19T03:24:47.995Z,0.90
2022-10-19T03:27:15.663Z,0.93
2022-10-19T03:29:43.091Z,0.85
2022-10-19T03:32:10.669Z,0.80
2022-10-19T03:34:38.104Z,1.02
2022-10-19T03:37:06.107Z,1.00
2022-10-19T03:39:33.525Z,0.82
2022-10-19T03:42:01.044Z,0.80
2022-10-19T03:44:28.482Z,1.10
2022-10-19T03:46:55.985Z,0.82
2022-10-19T03:49:23.458Z,1.15
2022-10-19T03:51:50.946Z,0.43
2022-10-19T03:54:18.486Z,0.85
2022-10-19T03:56:46.062Z,0.70
2022-10-19T03:59:15.176Z,0.50
2022-10-19T04:01:45.342Z,0.75
2022-10-19T04:04:15.980Z,0.70
2022-10-19T04:06:46.096Z,0.60
2022-10-19T04:09:19.064Z,0.70
2022-10-19T04:11:47.204Z,0.90
2022-10-19T04:14:26.718Z,1.00
2022-10-19T04:17:01.945Z,0.60
2022-10-19T04:19:29.488Z,0.88
2022-10-19T04:21:57.417Z,0.65
2022-10-19T04:24:24.880Z,0.90
2022-10-19T04:26:54.411Z,1.25
2022-10-19T04:29:27.905Z,0.60
2022-10-19T04:31:57.752Z,1.10
2022-10-19T04:34:25.305Z,0.50
2022-10-19T04:36:53.921Z,0.73
2022-10-19T04:39:21.374Z,0.68
2022-10-19T04:41:48.857Z,0.95
2022-10-19T04:44:16.408Z,0.88
2022-10-19T04:46:43.969Z,0.70
2022-10-19T04:49:14.125Z,1.10
2022-10-19T04:51:45.373Z,1.00
2022-10-19T04:54:12.868Z,0.63
2022-10-19T04:56:40.529Z,0.73
2022-10-19T04:59:08.390Z,0.88
2022-10-19T05:01:35.960Z,0.90
2022-10-19T05:04:03.599Z,1.13
2022-10-19T05:06:32.003Z,0.90
2022-10-19T05:09:00.133Z,0.70
2022-10-19T05:11:28.039Z,0.98
2022-10-19T05:13:57.260Z,0.80
2022-10-19T05:16:24.861Z,0.77
2022-10-19T05:18:59.028Z,1.00
2022-10-19T05:21:28.891Z,1.10
2022-10-19T05:23:57.100Z,1.00
2022-10-19T05:26:26.819Z,0.75
2022-10-19T05:28:57.233Z,0.85
2022-10-19T05:31:27.233Z,0.70
2022-10-19T05:33:56.525Z,0.60
2022-10-19T05:36:32.312Z,0.70
2022-10-19T05:39:02.689Z,0.57
2022-10-19T05:41:30.175Z,1.30
2022-10-19T05:44:00.001Z,0.80
2022-10-19T05:46:29.695Z,1.00
2022-10-19T05:48:58.566Z,0.73
2022-10-19T05:51:27.761Z,0.88
2022-10-19T05:53:56.791Z,0.80
2022-10-19T05:56:26.678Z,0.73
2022-10-19T05:58:56.855Z,1.13
2022-10-19T06:01:24.966Z,0.70
2022-10-19T06:03:54.473Z,0.80
2022-10-19T06:06:22.844Z,0.98
2022-10-19T06:08:51.036Z,0.77
2022-10-19T06:11:22.696Z,0.80
2022-10-19T06:13:53.378Z,0.98
2022-10-19T06:16:23.146Z,0.73
2022-10-19T06:18:51.237Z,0.70
2022-10-19T06:21:21.731Z,1.00
2022-10-19T06:23:57.372Z,0.80
2022-10-19T06:26:26.060Z,0.93
2022-10-19T06:28:58.017Z,0.60
2022-10-19T06:31:25.589Z,0.82
2022-10-19T06:33:53.774Z,0.60
2022-10-19T06:36:24.719Z,0.80
2022-10-19T06:38:53.279Z,0.90
2022-10-19T06:41:21.017Z,0.52
2022-10-19T06:43:52.805Z,1.05
2022-10-19T06:46:23.378Z,1.00
2022-10-19T06:48:58.605Z,1.75
2022-10-19T06:51:28.283Z,0.60
2022-10-19T06:53:57.234Z,1.13
2022-10-19T06:56:26.207Z,0.82
2022-10-19T06:58:54.570Z,0.63
2022-10-19T07:01:23.137Z,0.70
2022-10-19T07:03:52.261Z,1.05
2022-10-19T07:06:19.909Z,1.30
2022-10-19T07:08:47.879Z,1.35
2022-10-19T07:11:17.973Z,0.80
2022-10-19T07:13:45.739Z,0.80
2022-10-19T07:16:19.555Z,1.00
2022-10-19T07:18:51.066Z,0.75
2022-10-19T07:21:20.356Z,0.55
2022-10-19T07:23:48.305Z,0.55
2022-10-19T07:26:23.469Z,0.93
2022-10-19T07:28:58.842Z,0.47
2022-10-19T07:31:28.543Z,0.60
2022-10-19T07:33:59.937Z,0.90
2022-10-19T07:36:28.395Z,0.70
2022-10-19T07:38:56.007Z,0.80
2022-10-19T07:41:25.925Z,0.70
2022-10-19T07:43:55.292Z,1.00
2022-10-19T07:46:29.350Z,0.63
2022-10-19T07:48:56.964Z,1.30
2022-10-19T07:51:24.456Z,1.45
2022-10-19T07:53:52.561Z,0.80
2022-10-19T07:56:22.888Z,0.70
2022-10-19T07:58:51.731Z,1.17
2022-10-19T08:01:21.594Z,1.55
2022-10-19T08:06:38.342Z,1.20
2022-10-19T08:09:05.992Z,0.90
2022-10-19T08:11:35.204Z,1.15
2022-10-19T08:14:03.696Z,1.40
2022-10-19T08:16:40.365Z,1.23
2022-10-19T08:19:15.687Z,1.50
2022-10-19T08:21:45.924Z,1.23
2022-10-19T08:24:15.503Z,0.77
2022-10-19T08:26:43.291Z,0.65
2022-10-19T08:29:17.917Z,0.93
2022-10-19T08:31:47.118Z,0.85
2022-10-19T08:34:15.823Z,0.75
2022-10-19T08:36:43.906Z,0.90
2022-10-19T08:39:12.866Z,1.02
2022-10-19T08:41:40.503Z,1.30
2022-10-19T08:44:31.528Z,0.68
2022-10-19T08:47:14.069Z,1.02
2022-10-19T08:49:42.546Z,0.90
2022-10-19T08:52:24.356Z,0.70
2022-10-19T08:54:59.542Z,1.00
2022-10-19T08:57:48.508Z,0.80
2022-10-19T09:00:19.318Z,1.20
2022-10-19T09:02:58.670Z,0.73
2022-10-19T09:06:04.714Z,1.10
2022-10-19T09:08:33.922Z,0.70
2022-10-19T09:11:01.475Z,1.83
2022-10-19T09:13:46.979Z,1.27
2022-10-19T09:16:27.628Z,1.08
2022-10-19T09:21:47.822Z,1.08
2022-10-19T09:24:50.928Z,1.20
2022-10-19T09:27:24.370Z,1.33
2022-10-19T09:29:58.510Z,0.73
2022-10-19T09:32:34.072Z,0.90
2022-10-19T09:35:05.528Z,1.92
2022-10-19T09:37:40.466Z,1.38
2022-10-19T09:40:17.576Z,1.45
2022-10-19T09:42:45.550Z,1.20
2022-10-19T09:45:34.594Z,1.45
2022-10-19T09:50:21.613Z,1.40
2022-10-19T09:52:55.252Z,1.50
2022-10-19T09:55:38.155Z,1.13
2022-10-19T09:58:17.923Z,1.20
2022-10-19T10:00:46.640Z,1.35
2022-10-19T10:03:32.046Z,0.95
2022-10-19T10:06:04.761Z,0.90
2022-10-19T10:08:36.673Z,1.00
2022-10-19T10:11:22.786Z,1.25
2022-10-19T10:13:53.205Z,1.10
2022-10-19T10:16:24.033Z,1.00
2022-10-19T10:18:59.181Z,2.08
2022-10-19T10:21:32.926Z,1.27
2022-10-19T10:24:03.654Z,1.42
2022-10-19T10:26:32.163Z,1.30
2022-10-19T10:29:01.420Z,1.20
2022-10-19T10:31:30.701Z,1.00
2022-10-19T10:34:12.158Z,1.02
2022-10-19T10:36:53.793Z,1.15
2022-10-19T10:39:21.702Z,1.00
2022-10-19T10:41:49.416Z,1.13
2022-10-19T10:44:21.835Z,0.73
2022-10-19T10:47:04.695Z,1.20
2022-10-19T10:49:37.644Z,1.50
2022-10-19T10:52:09.988Z,1.35
2022-10-19T10:54:38.055Z,1.20
2022-10-19T10:57:13.168Z,1.20
2022-10-19T11:00:11.092Z,2.03
2022-10-19T11:02:42.001Z,1.20
2022-10-19T11:05:26.833Z,1.10
2022-10-19T11:08:12.766Z,0.82
2022-10-19T11:10:47.717Z,1.40
2022-10-19T11:13:35.506Z,0.88
2022-10-19T11:16:17.914Z,1.42
2022-10-19T11:18:51.305Z,1.10
2022-10-19T11:21:50.948Z,1.08
2022-10-19T11:24:56.353Z,1.00
2022-10-19T11:27:47.587Z,1.38
2022-10-19T11:30:20.746Z,1.10
2022-10-19T11:33:26.008Z,1.35
2022-10-19T11:36:01.964Z,1.38
2022-10-19T11:39:01.849Z,1.63
2022-10-19T11:41:45.162Z,1.30
2022-10-19T11:44:24.349Z,1.00
2022-10-19T11:47:13.549Z,1.20
2022-10-19T11:49:59.335Z,1.60
2022-10-19T11:52:40.489Z,1.43
2022-10-19T11:55:23.338Z,1.10
2022-10-19T11:57:56.921Z,1.42
2022-10-19T12:00:38.653Z,1.20
2022-10-19T12:03:13.011Z,1.60
2022-10-19T12:06:34.632Z,1.27
2022-10-19T12:09:28.410Z,1.13
2022-10-19T12:12:20.788Z,1.40
2022-10-19T12:14:52.908Z,1.00
2022-10-19T12:17:33.282Z,1.17
2022-10-19T12:20:09.655Z,1.35
2022-10-19T12:25:06.448Z,1.58
2022-10-19T12:27:37.617Z,1.02
2022-10-19T12:30:17.737Z,1.17
2022-10-19T12:33:21.095Z,1.13
2022-10-19T12:35:53.103Z,1.23
2022-10-19T12:38:45.946Z,1.42
2022-10-19T12:41:45.672Z,1.70
2022-10-19T12:44:34.482Z,1.40
2022-10-19T12:47:23.067Z,1.00
2022-10-19T12:49:51.710Z,1.95
2022-10-19T12:52:44.661Z,1.77
2022-10-19T12:55:19.401Z,2.30
2022-10-19T12:57:55.901Z,2.03
2022-10-19T13:00:37.798Z,1.70
2022-10-19T13:03:27.683Z,1.55
2022-10-19T13:05:59.806Z,1.40
2022-10-19T13:08:32.408Z,1.90
2022-10-19T13:11:10.068Z,1.95
2022-10-19T13:14:02.494Z,1.08
2022-10-19T13:16:29.893Z,1.73
2022-10-19T13:19:00.406Z,1.17
2022-10-19T13:21:55.250Z,3.08
2022-10-19T13:24:25.528Z,2.05
2022-10-19T13:27:05.273Z,1.77
2022-10-19T13:29:42.919Z,1.55
2022-10-19T13:32:34.446Z,1.30
2022-10-19T13:35:34.471Z,0.98
2022-10-19T13:38:17.120Z,0.77
2022-10-19T13:40:47.553Z,1.10
2022-10-19T13:43:26.804Z,1.00
2022-10-19T13:46:09.691Z,1.02
2022-10-19T13:49:01.583Z,1.30
2022-10-19T13:51:53.608Z,0.95
2022-10-19T13:54:33.408Z,1.00
2022-10-19T13:57:26.539Z,1.10
2022-10-19T14:00:00.103Z,1.05
2022-10-19T14:02:58.221Z,1.38
2022-10-19T14:05:59.551Z,1.17
2022-10-19T14:08:43.457Z,1.08
2022-10-19T14:11:18.017Z,1.10
2022-10-19T14:13:46.500Z,1.60
2022-10-19T14:16:22.429Z,0.98
2022-10-19T14:18:56.995Z,1.20
2022-10-19T14:21:36.917Z,1.42
2022-10-19T14:24:20.403Z,1.33
2022-10-19T14:26:48.072Z,1.05
2022-10-19T14:29:15.875Z,1.17
2022-10-19T14:31:43.561Z,1.48
2022-10-19T14:34:11.152Z,1.27
2022-10-19T14:36:48.808Z,1.20
2022-10-19T14:39:33.204Z,1.35
2022-10-19T14:42:05.891Z,2.05
2022-10-19T14:44:43.211Z,1.45
2022-10-19T14:47:27.754Z,1.65
2022-10-19T14:49:55.367Z,1.10
2022-10-19T14:52:34.958Z,0.82
2022-10-19T14:55:12.650Z,1.10
2022-10-19T14:57:47.664Z,1.00
2022-10-19T15:00:21.295Z,1.05
2022-10-19T15:03:01.983Z,0.95
2022-10-19T15:05:35.942Z,1.02
2022-10-19T15:08:15.928Z,1.10
2022-10-19T15:10:47.135Z,1.70
2022-10-19T15:13:25.972Z,1.25
2022-10-19T15:15:54.952Z,1.60
2022-10-19T15:18:47.685Z,1.40
2022-10-19T15:21:20.291Z,1.50
2022-10-19T15:23:52.797Z,1.30
2022-10-19T15:26:26.261Z,1.10
2022-10-19T15:29:06.661Z,1.20
2022-10-19T15:31:34.229Z,1.40
2022-10-19T15:34:02.550Z,1.58
2022-10-19T15:36:34.378Z,1.10
2022-10-19T15:39:18.089Z,1.00
2022-10-19T15:41:52.518Z,1.20
2022-10-19T15:44:46.406Z,1.20
2022-10-19T15:47:19.479Z,1.35
2022-10-19T15:49:56.055Z,1.00
2022-10-19T15:52:28.982Z,0.98
2022-10-19T15:54:58.747Z,1.40
2022-10-19T15:57:34.155Z,1.50
2022-10-19T16:00:16.452Z,1.60
2022-10-19T16:02:44.678Z,1.52
2022-10-19T16:05:12.138Z,1.80
2022-10-19T16:07:41.131Z,1.85
2022-10-19T16:10:18.721Z,1.10
2022-10-19T16:12:47.773Z,1.33
2022-10-19T16:15:22.349Z,1.30
2022-10-19T16:17:53.229Z,1.40
2022-10-19T16:20:22.013Z,2.03
2022-10-19T16:22:49.768Z,1.02
2022-10-19T16:25:17.920Z,1.70
2022-10-19T16:27:45.417Z,1.20
2022-10-19T16:30:13.393Z,1.23
2022-10-19T16:35:10.310Z,1.35
2022-10-19T16:37:37.968Z,1.42
2022-10-19T16:40:06.228Z,1.10
2022-10-19T16:42:34.946Z,1.42
2022-10-19T16:45:02.623Z,1.40
2022-10-19T16:47:30.042Z,1.60
2022-10-19T16:50:00.121Z,1.30
2022-10-19T16:52:33.038Z,1.20
2022-10-19T16:55:01.061Z,1.48
2022-10-19T16:57:28.551Z,1.20
2022-10-19T16:59:56.025Z,1.60
2022-10-19T17:02:23.785Z,1.50
2022-10-19T17:04:51.310Z,1.38
2022-10-19T17:07:19.266Z,1.00
2022-10-19T17:09:49.713Z,1.25
2022-10-19T17:12:19.885Z,1.40
2022-10-19T17:14:47.405Z,1.23
2022-10-19T17:17:17.190Z,1.40
2022-10-19T17:19:44.783Z,1.20
2022-10-19T17:22:12.461Z,1.88
2022-10-19T17:24:41.494Z,1.52
2022-10-19T17:27:09.164Z,1.63
2022-10-19T17:29:36.637Z,1.35
2022-10-19T17:32:04.187Z,1.00
2022-10-19T17:34:31.817Z,1.00
2022-10-19T17:36:59.281Z,1.10
2022-10-19T17:39:29.119Z,1.02
2022-10-19T17:42:02.014Z,1.10
2022-10-19T17:44:31.355Z,1.20
2022-10-19T17:47:00.648Z,1.30
2022-10-19T17:49:29.841Z,1.00
2022-10-19T17:51:57.628Z,1.40
2022-10-19T17:54:25.403Z,1.70
2022-10-19T17:56:53.008Z,2.28
2022-10-19T17:59:30.306Z,1.58
2022-10-19T18:02:04.040Z,1.40
2022-10-19T18:04:31.906Z,1.00
2022-10-19T18:06:59.437Z,1.67
2022-10-19T18:09:26.886Z,1.35
2022-10-19T18:11:54.725Z,1.70
2022-10-19T18:14:22.242Z,1.63
2022-10-19T18:16:50.387Z,1.55
2022-10-19T18:19:18.014Z,1.95
2022-10-19T18:21:47.327Z,1.77
2022-10-19T18:24:19.387Z,1.75
2022-10-19T18:26:48.096Z,1.52
2022-10-19T18:29:21.882Z,1.48
2022-10-19T18:31:52.407Z,1.10
2022-10-19T18:34:25.124Z,1.75
2022-10-19T18:36:53.249Z,1.60
2022-10-19T18:39:20.847Z,1.08
2022-10-19T18:41:52.363Z,1.25
2022-10-19T18:44:25.271Z,1.20
2022-10-19T18:46:55.811Z,1.33
2022-10-19T18:49:24.204Z,1.20
2022-10-19T18:51:55.117Z,1.58
2022-10-19T18:54:26.276Z,1.52
2022-10-19T18:56:54.312Z,1.13
2022-10-19T18:59:21.903Z,1.70
2022-10-19T19:01:49.483Z,1.52
2022-10-19T19:04:16.992Z,1.40
2022-10-19T19:06:44.576Z,1.60
2022-10-19T19:09:12.973Z,1.75
2022-10-19T19:11:41.254Z,1.40
2022-10-19T19:14:12.291Z,2.38
2022-10-19T19:16:41.125Z,7.32
2022-10-19T19:19:10.749Z,5.65
2022-10-19T19:21:41.116Z,2.08
2022-10-19T19:24:08.622Z,1.77
2022-10-19T19:26:39.563Z,1.85
2022-10-19T19:29:07.664Z,1.85
2022-10-19T19:31:35.419Z,1.67
2022-10-19T19:34:06.371Z,1.88
2022-10-19T19:36:34.006Z,1.35
2022-10-19T19:39:02.070Z,1.40
2022-10-19T19:41:31.271Z,2.25
2022-10-19T19:43:59.132Z,1.70
2022-10-19T19:46:26.934Z,1.40
2022-10-19T19:49:01.044Z,1.25
2022-10-19T19:51:30.015Z,1.33
2022-10-19T19:53:57.596Z,2.28
2022-10-19T19:56:25.455Z,1.40
2022-10-19T19:58:58.431Z,1.30
2022-10-19T20:01:26.738Z,1.40
2022-10-19T20:03:54.345Z,1.30
2022-10-19T20:06:25.049Z,1.70
2022-10-19T20:08:57.498Z,1.63
2022-10-19T20:11:27.026Z,1.40
2022-10-19T20:13:54.743Z,1.55
2022-10-19T20:16:29.364Z,1.90
2022-10-19T20:19:08.178Z,1.80
2022-10-19T20:21:36.153Z,1.73
2022-10-19T20:24:05.856Z,1.63
2022-10-19T20:26:33.697Z,2.00
2022-10-19T20:29:04.581Z,3.72
2022-10-19T20:31:33.628Z,1.95
2022-10-19T20:34:01.157Z,1.70
2022-10-19T20:36:28.682Z,1.50
2022-10-19T20:38:58.208Z,1.45
2022-10-19T20:41:27.706Z,1.90
2022-10-19T20:43:56.132Z,1.50
2022-10-19T20:46:26.897Z,1.38
2022-10-19T20:48:59.790Z,1.40
2022-10-19T20:51:32.843Z,1.50
2022-10-19T20:54:02.597Z,1.15
2022-10-19T20:56:34.975Z,0.95
2022-10-19T20:59:13.999Z,1.40
2022-10-19T21:01:42.932Z,1.38
2022-10-19T21:04:12.795Z,1.70
2022-10-19T21:06:46.284Z,1.30
2022-10-19T21:09:18.132Z,1.10
2022-10-19T21:11:47.362Z,1.48
2022-10-19T21:14:27.037Z,1.38
2022-10-19T21:16:57.987Z,1.40
2022-10-19T21:19:28.224Z,1.45
2022-10-19T21:21:58.425Z,1.65
2022-10-19T21:24:28.495Z,1.17
2022-10-19T21:26:56.099Z,1.92
2022-10-19T21:29:23.527Z,1.48
2022-10-19T21:31:53.111Z,1.17
2022-10-19T21:34:23.441Z,1.83
2022-10-19T21:36:51.473Z,1.52
2022-10-19T21:39:19.277Z,1.95
2022-10-19T21:41:47.842Z,1.30
2022-10-19T21:44:16.440Z,1.52
2022-10-19T21:46:44.575Z,1.83
2022-10-19T21:49:12.760Z,1.50
2022-10-19T21:51:51.592Z,2.08
2022-10-19T21:54:21.319Z,2.00
2022-10-19T21:56:49.199Z,1.23
2022-10-19T21:59:17.448Z,2.05
2022-10-19T22:01:45.052Z,1.60
2022-10-19T22:04:15.249Z,1.30
2022-10-19T22:06:43.300Z,1.52
2022-10-19T22:09:14.768Z,1.83
2022-10-19T22:11:42.996Z,1.35
2022-10-19T22:14:12.753Z,1.33
2022-10-19T22:16:41.007Z,1.40
2022-10-19T22:19:10.116Z,1.63
2022-10-19T22:24:15.574Z,1.17
2022-10-19T22:26:47.247Z,1.77
2022-10-19T22:29:15.016Z,1.67
2022-10-19T22:31:42.795Z,1.63
2022-10-19T22:34:13.453Z,1.67
2022-10-19T22:36:41.205Z,1.40
2022-10-19T22:39:09.339Z,1.80
2022-10-19T22:41:36.812Z,1.40
2022-10-19T22:44:04.563Z,1.40
2022-10-19T22:46:32.526Z,1.60
2022-10-19T22:49:00.020Z,1.80
2022-10-19T22:51:27.602Z,1.10
2022-10-19T22:53:55.215Z,1.38
2022-10-19T22:56:22.753Z,1.63
2022-10-19T22:58:50.224Z,1.33
2022-10-19T23:01:17.836Z,1.65
2022-10-19T23:03:45.635Z,1.30
2022-10-19T23:06:14.850Z,1.30
2022-10-19T23:08:43.518Z,1.88
2022-10-19T23:11:11.953Z,1.40
2022-10-19T23:13:39.441Z,1.35
2022-10-19T23:16:07.437Z,1.35
2022-10-19T23:18:37.545Z,1.52
2022-10-19T23:21:08.097Z,1.55
2022-10-19T23:23:36.964Z,1.55
2022-10-19T23:26:21.259Z,1.20
2022-10-19T23:28:50.018Z,1.38
2022-10-19T23:31:25.563Z,1.90
2022-10-19T23:33:54.271Z,1.50
2022-10-19T23:36:27.249Z,1.83
2022-10-19T23:38:56.026Z,1.70
2022-10-19T23:41:23.603Z,2.15
2022-10-19T23:43:51.057Z,1.40
2022-10-19T23:46:18.868Z,1.60
2022-10-19T23:48:46.541Z,1.30
2022-10-19T23:51:19.103Z,1.77
2022-10-19T23:53:49.184Z,1.38
2022-10-19T23:56:19.112Z,1.65
2022-10-19T23:58:46.937Z,1.52
